createdAt,value
2018-07-19T04:54:07.849Z,23.33
2018-07-19T04:55:14.821Z,23.51
2018-07-19T04:56:27.004Z,23.75
2018-07-19T04:57:33.667Z,23.99
2018-07-19T04:58:40.568Z,24.17
2018-07-19T04:59:47.036Z,24.34
2018-07-19T05:00:54.611Z,24.53
2018-07-19T05:02:00.593Z,24.71
2018-07-19T05:03:06.743Z,24.90
2018-07-19T05:04:13.686Z,25.09
2018-07-19T05:05:19.935Z,25.30
2018-07-19T05:06:26.887Z,25.52
2018-07-19T05:07:34.026Z,25.69
2018-07-19T05:08:40.020Z,25.86
2018-07-19T05:09:48.186Z,26.02
2018-07-19T05:10:54.433Z,26.17
2018-07-19T05:12:00.561Z,26.35
2018-07-19T05:13:07.485Z,26.50
2018-07-19T05:14:14.139Z,26.65
2018-07-19T05:15:20.320Z,26.77
2018-07-19T05:16:29.646Z,26.92
2018-07-19T05:17:36.656Z,27.08
2018-07-19T05:18:48.328Z,27.23
2018-07-19T05:20:17.186Z,27.34
2018-07-19T05:21:29.296Z,27.50
2018-07-19T05:22:35.608Z,27.63
2018-07-19T05:23:42.002Z,27.81
2018-07-19T05:24:47.956Z,27.95
2018-07-19T05:25:54.016Z,28.04
2018-07-19T05:27:01.094Z,28.06
2018-07-19T05:28:07.164Z,28.06
2018-07-19T05:29:13.284Z,28.05
2018-07-19T05:30:19.645Z,28.05
2018-07-19T05:31:25.799Z,28.21
2018-07-19T05:32:31.789Z,28.45
2018-07-19T05:33:37.762Z,28.71
2018-07-19T05:34:44.016Z,28.97
2018-07-19T05:35:50.222Z,29.15
2018-07-19T05:36:59.248Z,29.31
2018-07-19T05:38:06.892Z,29.48
2018-07-19T05:39:14.489Z,29.70
2018-07-19T05:40:20.960Z,29.94
2018-07-19T05:41:27.010Z,30.15
2018-07-19T05:42:33.298Z,30.29
2018-07-19T05:43:39.420Z,30.38
2018-07-19T05:44:46.408Z,30.42
2018-07-19T05:45:52.678Z,30.43
2018-07-19T05:47:00.997Z,30.53
2018-07-19T05:48:07.188Z,30.59
2018-07-19T05:49:13.288Z,30.64
2018-07-19T05:50:19.468Z,30.67
2018-07-19T05:51:26.796Z,30.73
2018-07-19T05:52:33.838Z,30.79
2018-07-19T05:53:39.795Z,30.86
2018-07-19T05:54:46.088Z,30.95
2018-07-19T05:55:54.160Z,31.03
2018-07-19T05:57:09.590Z,31.16
2018-07-19T05:58:20.862Z,31.29
2018-07-19T05:59:29.666Z,31.43
2018-07-19T06:00:36.884Z,31.53
2018-07-19T06:01:44.068Z,31.62
2018-07-19T06:02:53.977Z,31.72
2018-07-19T06:04:01.234Z,31.82
2018-07-19T06:05:14.225Z,31.92
2018-07-19T06:06:21.308Z,32.02
2018-07-19T06:07:29.028Z,32.06
2018-07-19T06:08:35.193Z,32.04
2018-07-19T06:09:41.219Z,31.92
2018-07-19T06:10:47.383Z,31.77
2018-07-19T06:11:53.567Z,31.73
2018-07-19T06:13:06.104Z,31.68
2018-07-19T06:14:13.772Z,31.70
2018-07-19T06:15:20.025Z,31.81
2018-07-19T06:16:26.258Z,32.01
2018-07-19T06:17:33.922Z,32.16
2018-07-19T06:18:40.327Z,32.21
2018-07-19T06:19:46.420Z,32.15
2018-07-19T06:20:54.998Z,32.17
2018-07-19T06:22:02.486Z,32.24
2018-07-19T06:23:10.142Z,32.42
2018-07-19T06:24:17.796Z,32.59
2018-07-19T06:25:23.876Z,32.74
2018-07-19T06:26:30.596Z,32.98
2018-07-19T06:27:36.805Z,33.23
2018-07-19T06:28:43.675Z,33.40
2018-07-19T06:29:49.884Z,33.49
2018-07-19T06:30:56.951Z,33.64
2018-07-19T06:32:05.782Z,33.82
2018-07-19T06:33:12.146Z,33.86
2018-07-19T06:34:18.762Z,33.83
2018-07-19T06:35:26.067Z,33.75
2018-07-19T06:36:32.348Z,33.73
2018-07-19T06:37:38.858Z,33.81
2018-07-19T06:38:47.056Z,33.88
2018-07-19T06:39:53.478Z,33.80
2018-07-19T06:40:59.830Z,33.82
2018-07-19T06:42:07.660Z,33.93
2018-07-19T06:43:14.788Z,34.08
2018-07-19T06:44:21.430Z,34.17
2018-07-19T06:45:29.456Z,34.24
2018-07-19T06:46:36.319Z,34.20
2018-07-19T06:47:42.936Z,34.23
2018-07-19T06:48:50.048Z,34.34
2018-07-19T06:49:59.522Z,34.47
2018-07-19T06:51:05.880Z,34.62
2018-07-19T06:52:13.691Z,34.75
2018-07-19T06:53:20.522Z,34.88
2018-07-19T06:54:26.736Z,35.07
2018-07-19T06:55:33.061Z,35.26
2018-07-19T06:56:39.430Z,35.49
2018-07-19T06:57:47.734Z,35.68
2018-07-19T06:58:54.608Z,35.84
2018-07-19T07:00:01.681Z,35.89
2018-07-19T07:01:08.060Z,35.96
2018-07-19T07:02:14.324Z,36.12
2018-07-19T07:03:22.153Z,36.27
2018-07-19T07:04:31.088Z,36.43
2018-07-19T07:05:37.358Z,36.57
2018-07-19T07:06:43.618Z,36.72
2018-07-19T07:07:49.614Z,36.82
2018-07-19T07:08:55.733Z,36.90
2018-07-19T07:10:01.968Z,37.00
2018-07-19T07:11:08.294Z,37.12
2018-07-19T07:12:16.152Z,37.27
2018-07-19T07:13:22.364Z,37.44
2018-07-19T07:14:30.150Z,37.59
2018-07-19T07:15:36.426Z,37.73
2018-07-19T07:16:44.446Z,37.87
2018-07-19T07:17:50.967Z,38.02
2018-07-19T07:18:58.266Z,38.16
2018-07-19T07:20:06.460Z,38.31
2018-07-19T07:21:12.760Z,38.48
2018-07-19T07:22:18.951Z,38.65
2018-07-19T07:23:26.451Z,38.76
2018-07-19T07:24:34.797Z,38.87
2018-07-19T07:25:51.150Z,38.97
2018-07-19T07:26:57.506Z,39.13
2018-07-19T07:28:03.638Z,39.27
2018-07-19T07:29:10.892Z,39.42
2018-07-19T07:30:17.020Z,39.54
2018-07-19T07:31:23.164Z,39.67
2018-07-19T07:32:29.241Z,39.79
2018-07-19T07:33:35.412Z,39.88
2018-07-19T07:34:41.724Z,40.02
2018-07-19T07:35:49.681Z,40.16
2018-07-19T07:36:56.010Z,40.28
2018-07-19T07:38:02.522Z,40.39
2018-07-19T07:39:12.622Z,40.50
2018-07-19T07:40:19.280Z,40.61
2018-07-19T07:41:25.323Z,40.65
2018-07-19T07:42:31.566Z,40.68
2018-07-19T07:43:37.603Z,40.71
2018-07-19T07:44:43.768Z,40.75
2018-07-19T07:45:50.262Z,40.79
2018-07-19T07:46:56.330Z,40.84
2018-07-19T07:48:02.286Z,40.91
2018-07-19T07:49:08.212Z,40.99
2018-07-19T07:50:14.109Z,41.04
2018-07-19T07:51:20.283Z,41.08
2018-07-19T07:52:27.968Z,41.16
2018-07-19T07:53:35.418Z,41.17
2018-07-19T07:54:41.653Z,41.17
2018-07-19T07:55:47.729Z,41.21
2018-07-19T07:56:54.048Z,41.30
2018-07-19T07:58:00.074Z,41.39
2018-07-19T07:59:07.090Z,41.51
2018-07-19T08:00:13.409Z,41.59
2018-07-19T08:01:25.317Z,41.66
2018-07-19T08:02:31.420Z,41.65
2018-07-19T08:03:42.667Z,41.71
2018-07-19T08:04:50.894Z,41.80
2018-07-19T08:05:57.964Z,41.92
2018-07-19T08:07:04.168Z,42.05
2018-07-19T08:08:10.556Z,42.15
2018-07-19T08:09:19.311Z,42.21
2018-07-19T08:10:26.644Z,42.33
2018-07-19T08:11:32.694Z,42.40
2018-07-19T08:12:38.970Z,42.45
2018-07-19T08:13:45.484Z,42.53
2018-07-19T08:14:52.288Z,42.60
2018-07-19T08:15:58.798Z,42.55
2018-07-19T08:17:05.719Z,42.50
2018-07-19T08:18:12.846Z,42.55
2018-07-19T08:19:19.346Z,42.65
2018-07-19T08:20:25.624Z,42.71
2018-07-19T08:21:32.412Z,42.76
2018-07-19T08:22:40.759Z,42.84
2018-07-19T08:23:47.404Z,42.90
2018-07-19T08:24:54.525Z,42.90
2018-07-19T08:26:00.544Z,42.93
2018-07-19T08:27:06.857Z,42.94
2018-07-19T08:28:14.985Z,42.99
2018-07-19T08:29:21.265Z,43.00
2018-07-19T08:30:28.218Z,42.97
2018-07-19T08:31:34.416Z,42.96
2018-07-19T08:32:41.168Z,42.93
2018-07-19T08:33:47.199Z,42.98
2018-07-19T08:34:53.412Z,43.07
2018-07-19T08:35:59.614Z,43.21
2018-07-19T08:37:05.886Z,43.33
2018-07-19T08:38:12.307Z,43.46
2018-07-19T08:39:18.497Z,43.56
2018-07-19T08:40:24.876Z,43.64
2018-07-19T08:41:30.951Z,43.74
2018-07-19T08:42:39.530Z,43.79
2018-07-19T08:43:48.564Z,43.72
2018-07-19T08:44:56.316Z,43.66
2018-07-19T08:46:04.159Z,43.63
2018-07-19T08:47:14.936Z,43.63
2018-07-19T08:48:21.061Z,43.66
2018-07-19T08:49:27.319Z,43.62
2018-07-19T08:50:33.433Z,43.63
2018-07-19T08:51:40.210Z,43.69
2018-07-19T08:52:48.164Z,43.77
2018-07-19T08:53:54.352Z,43.88
2018-07-19T08:55:01.541Z,44.00
2018-07-19T08:56:07.642Z,44.08
2018-07-19T08:57:15.069Z,44.18
2018-07-19T08:58:22.031Z,44.22
2018-07-19T08:59:29.038Z,44.20
2018-07-19T09:00:35.253Z,44.22
2018-07-19T09:01:46.906Z,44.24
2018-07-19T09:02:55.403Z,44.25
2018-07-19T09:04:02.381Z,44.23
2018-07-19T09:05:10.417Z,44.07
2018-07-19T09:06:16.580Z,43.92
2018-07-19T09:07:22.822Z,43.74
2018-07-19T09:08:32.718Z,43.62
2018-07-19T09:09:39.887Z,43.54
2018-07-19T09:10:46.373Z,43.51
2018-07-19T09:11:52.533Z,43.53
2018-07-19T09:12:59.522Z,43.56
2018-07-19T09:14:07.015Z,43.59
2018-07-19T09:15:14.058Z,43.66
2018-07-19T09:16:21.086Z,43.78
2018-07-19T09:17:27.144Z,43.75
2018-07-19T09:18:33.354Z,43.70
2018-07-19T09:19:39.490Z,43.70
2018-07-19T09:23:43.049Z,43.83
2018-07-19T09:24:49.342Z,43.82
2018-07-19T09:25:56.659Z,43.78
2018-07-19T09:27:02.935Z,43.71
2018-07-19T09:28:09.247Z,43.62
2018-07-19T09:29:15.735Z,43.50
2018-07-19T09:30:22.003Z,43.37
2018-07-19T09:31:29.260Z,43.15
2018-07-19T09:32:36.530Z,42.96
2018-07-19T09:33:42.705Z,42.68
2018-07-19T09:34:48.980Z,42.37
2018-07-19T09:35:55.337Z,42.15
2018-07-19T09:37:03.549Z,42.00
2018-07-19T09:38:10.819Z,41.84
2018-07-19T09:39:17.621Z,41.74
2018-07-19T09:40:23.860Z,41.64
2018-07-19T09:41:30.027Z,41.56
2018-07-19T09:42:37.723Z,41.45
2018-07-19T09:43:44.092Z,41.27
2018-07-19T09:44:51.027Z,41.07
2018-07-19T09:45:58.033Z,40.86
2018-07-19T09:47:04.316Z,40.69
2018-07-19T09:48:12.640Z,40.54
2018-07-19T09:49:21.231Z,40.45
2018-07-19T09:50:28.743Z,40.37
2018-07-19T09:51:35.232Z,40.32
2018-07-19T09:52:44.973Z,40.34
2018-07-19T09:53:51.288Z,40.35
2018-07-19T09:55:01.115Z,40.37
2018-07-19T09:56:07.471Z,40.27
2018-07-19T09:57:16.441Z,40.20
2018-07-19T09:58:24.853Z,40.09
2018-07-19T09:59:32.000Z,40.00
2018-07-19T10:00:44.207Z,39.93
2018-07-19T10:01:50.672Z,39.82
2018-07-19T10:02:56.929Z,39.74
2018-07-19T10:04:03.867Z,39.68
2018-07-19T10:05:10.109Z,39.62
2018-07-19T10:06:16.770Z,39.57
2018-07-19T10:07:23.344Z,39.48
2018-07-19T10:08:31.183Z,39.36
2018-07-19T10:09:39.531Z,39.26
2018-07-19T10:10:45.665Z,39.18
2018-07-19T10:11:52.950Z,39.10
2018-07-19T10:13:00.263Z,38.97
2018-07-19T10:14:07.391Z,38.86
2018-07-19T10:15:14.612Z,38.77
2018-07-19T10:16:22.320Z,38.70
2018-07-19T10:17:28.736Z,38.68
2018-07-19T10:18:35.956Z,38.60
2018-07-19T10:19:42.726Z,38.49
2018-07-19T10:20:51.649Z,38.41
2018-07-19T10:21:58.109Z,38.35
2018-07-19T10:23:04.485Z,38.29
2018-07-19T10:24:11.167Z,38.24
2018-07-19T10:25:18.481Z,38.19
2018-07-19T10:26:25.002Z,38.10
2018-07-19T10:27:32.979Z,37.98
2018-07-19T10:28:39.250Z,37.85
2018-07-19T10:29:47.913Z,37.78
2018-07-19T10:30:55.000Z,37.76
2018-07-19T10:32:02.079Z,37.76
2018-07-19T10:33:08.603Z,37.78
2018-07-19T10:34:15.020Z,37.80
2018-07-19T10:35:23.125Z,37.77
2018-07-19T10:36:29.600Z,37.71
2018-07-19T10:37:35.935Z,37.61
2018-07-19T10:38:42.112Z,37.46
2018-07-19T10:39:48.491Z,37.33
2018-07-19T10:40:55.541Z,37.26
2018-07-19T10:42:01.772Z,37.21
2018-07-19T10:43:08.067Z,37.13
2018-07-19T10:44:16.208Z,36.99
2018-07-19T10:45:22.626Z,36.86
2018-07-19T10:46:32.441Z,36.77
2018-07-19T10:47:38.655Z,36.77
2018-07-19T10:48:44.887Z,36.76
2018-07-19T10:49:53.860Z,36.71
2018-07-19T10:51:01.512Z,36.64
2018-07-19T10:52:08.845Z,36.59
2018-07-19T10:53:15.374Z,36.59
2018-07-19T10:54:21.653Z,36.65
2018-07-19T10:55:27.986Z,36.71
2018-07-19T10:56:34.511Z,36.73
2018-07-19T10:57:41.082Z,36.77
2018-07-19T10:58:47.863Z,36.81
2018-07-19T10:59:54.173Z,36.88
2018-07-19T11:01:00.466Z,36.95
2018-07-19T11:02:06.863Z,37.00
2018-07-19T11:03:15.571Z,37.04
2018-07-19T11:04:22.361Z,37.03
2018-07-19T11:05:29.568Z,36.96
2018-07-19T11:06:38.526Z,36.83
2018-07-19T11:07:45.190Z,36.71
2018-07-19T11:08:51.559Z,36.58
2018-07-19T11:09:57.844Z,36.46
2018-07-19T11:11:04.148Z,36.37
2018-07-19T11:12:18.243Z,36.30
2018-07-19T11:13:24.478Z,36.21
2018-07-19T11:14:35.243Z,36.19
2018-07-19T11:15:41.705Z,36.16
2018-07-19T11:16:49.174Z,36.14
2018-07-19T11:17:56.653Z,36.03
2018-07-19T11:19:02.749Z,35.90
2018-07-19T11:20:10.684Z,35.81
2018-07-19T11:21:17.027Z,35.70
2018-07-19T11:22:24.399Z,35.60
2018-07-19T11:23:32.133Z,35.54
2018-07-19T11:24:38.292Z,35.53
2018-07-19T11:25:44.572Z,35.55
2018-07-19T11:26:52.079Z,35.58
2018-07-19T11:27:58.375Z,35.60
2018-07-19T11:29:05.585Z,35.50
2018-07-19T11:30:12.133Z,35.41
2018-07-19T11:31:18.639Z,35.26
2018-07-19T11:32:27.184Z,35.21
2018-07-19T11:33:33.516Z,35.23
2018-07-19T11:34:40.726Z,35.24
2018-07-19T11:35:47.959Z,35.24
2018-07-19T11:36:57.283Z,35.23
2018-07-19T11:38:04.029Z,35.21
2018-07-19T11:39:11.811Z,35.20
2018-07-19T11:40:17.965Z,35.25
2018-07-19T11:41:25.185Z,35.32
2018-07-19T11:42:32.323Z,35.37
2018-07-19T11:43:38.524Z,35.39
2018-07-19T11:44:44.995Z,35.40
2018-07-19T11:45:52.151Z,35.37
2018-07-19T11:46:59.547Z,35.35
2018-07-19T11:48:06.109Z,35.32
2018-07-19T11:49:13.271Z,35.32
2018-07-19T11:50:20.479Z,35.34
2018-07-19T11:51:26.663Z,35.36
2018-07-19T11:52:33.103Z,35.38
2018-07-19T11:53:40.043Z,35.37
2018-07-19T11:54:46.590Z,35.35
2018-07-19T11:55:52.979Z,35.34
2018-07-19T11:56:59.143Z,35.34
2018-07-19T11:58:06.500Z,35.33
2018-07-19T11:59:17.300Z,35.32
2018-07-19T12:00:23.579Z,35.30
2018-07-19T12:01:29.901Z,35.28
2018-07-19T12:02:38.678Z,35.30
2018-07-19T12:03:47.425Z,35.31
2018-07-19T12:04:54.549Z,35.35
2018-07-19T12:06:00.789Z,35.37
2018-07-19T12:07:09.567Z,35.38
2018-07-19T12:08:15.746Z,35.35
2018-07-19T12:09:22.089Z,35.33
2018-07-19T12:10:28.341Z,35.32
2018-07-19T12:11:34.773Z,35.31
2018-07-19T12:12:46.143Z,35.31
2018-07-19T12:13:52.382Z,35.29
2018-07-19T12:15:00.537Z,35.27
2018-07-19T12:16:06.954Z,35.26
2018-07-19T12:17:13.605Z,35.24
2018-07-19T12:18:19.891Z,35.23
2018-07-19T12:19:27.441Z,35.23
2018-07-19T12:20:34.352Z,35.21
2018-07-19T12:21:41.469Z,35.20
2018-07-19T12:22:47.753Z,35.20
2018-07-19T12:23:53.845Z,35.19
2018-07-19T12:25:00.101Z,35.16
2018-07-19T12:26:06.291Z,35.13
2018-07-19T12:27:12.587Z,35.10
2018-07-19T12:28:18.943Z,35.07
2018-07-19T12:29:25.927Z,35.06
2018-07-19T12:30:31.895Z,35.03
2018-07-19T12:31:38.933Z,35.01
2018-07-19T12:32:45.239Z,35.00
2018-07-19T12:33:51.471Z,34.98
2018-07-19T12:34:59.346Z,34.96
2018-07-19T12:36:05.694Z,34.98
2018-07-19T12:37:12.967Z,34.98
2018-07-19T12:38:22.645Z,34.95
2018-07-19T12:39:30.326Z,34.94
2018-07-19T12:40:37.849Z,34.91
2018-07-19T12:41:44.033Z,34.90
2018-07-19T12:42:50.805Z,34.89
2018-07-19T12:43:58.395Z,34.88
2018-07-19T12:45:06.229Z,34.89
2018-07-19T12:46:13.613Z,34.89
2018-07-19T12:47:19.835Z,34.90
2018-07-19T12:48:26.866Z,34.90
2018-07-19T12:49:34.015Z,34.89
2018-07-19T12:50:42.391Z,34.91
2018-07-19T12:51:49.463Z,34.89
2018-07-19T12:52:55.781Z,34.85
2018-07-19T12:54:02.019Z,34.82
2018-07-19T12:55:08.439Z,34.78
2018-07-19T12:56:16.803Z,34.76
2018-07-19T12:57:25.329Z,34.73
2018-07-19T12:58:32.467Z,34.71
2018-07-19T12:59:39.607Z,34.71
2018-07-19T13:00:46.501Z,34.73
2018-07-19T13:01:52.892Z,34.77
2018-07-19T13:03:00.485Z,34.79
2018-07-19T13:04:07.747Z,34.80
2018-07-19T13:05:14.462Z,34.83
2018-07-19T13:06:20.873Z,34.83
2018-07-19T13:07:29.768Z,34.84
2018-07-19T13:08:36.889Z,34.87
2018-07-19T13:09:44.242Z,34.86
2018-07-19T13:10:52.191Z,34.87
2018-07-19T13:11:59.983Z,34.87
2018-07-19T13:13:07.222Z,34.89
2018-07-19T13:14:14.335Z,34.90
2018-07-19T13:15:22.089Z,34.92
2018-07-19T13:16:28.217Z,34.93
2018-07-19T13:17:35.751Z,34.95
2018-07-19T13:18:42.025Z,34.95
2018-07-19T13:19:48.809Z,34.95
2018-07-19T13:20:56.181Z,34.94
2018-07-19T13:22:02.627Z,34.93
2018-07-19T13:23:09.899Z,34.93
2018-07-19T13:24:16.879Z,34.95
2018-07-19T13:25:24.091Z,34.97
2018-07-19T13:26:37.643Z,34.98
2018-07-19T13:27:45.503Z,34.98
2018-07-19T13:28:52.469Z,34.97
2018-07-19T13:29:59.247Z,34.95
2018-07-19T13:31:06.411Z,34.96
2018-07-19T13:32:14.296Z,34.94
2018-07-19T13:33:22.656Z,34.92
2018-07-19T13:34:30.649Z,34.90
2018-07-19T13:35:36.843Z,34.89
2018-07-19T13:36:45.227Z,34.90
2018-07-19T13:37:51.454Z,34.88
2018-07-19T13:38:59.241Z,34.86
2018-07-19T13:40:06.204Z,34.83
2018-07-19T13:41:13.567Z,34.81
2018-07-19T13:42:22.950Z,34.79
2018-07-19T13:43:29.973Z,34.78
2018-07-19T13:44:37.373Z,34.78
2018-07-19T13:45:43.623Z,34.78
2018-07-19T13:46:49.936Z,34.78
2018-07-19T13:47:59.595Z,34.79
2018-07-19T13:49:06.807Z,34.77
2018-07-19T13:50:13.352Z,34.77
2018-07-19T13:51:19.567Z,34.78
2018-07-19T13:52:36.225Z,34.77
2018-07-19T13:53:52.427Z,34.75
2018-07-19T13:54:59.665Z,34.73
2018-07-19T13:56:08.302Z,34.72
2018-07-19T13:57:15.368Z,34.71
2018-07-19T13:58:25.397Z,34.70
2018-07-19T13:59:32.939Z,34.70
2018-07-19T14:00:39.527Z,34.69
2018-07-19T14:01:47.183Z,34.70
2018-07-19T14:02:55.104Z,34.70
2018-07-19T14:04:02.270Z,34.68
2018-07-19T14:05:09.163Z,34.65
2018-07-19T14:06:18.219Z,34.61
2018-07-19T14:07:26.228Z,34.58
2018-07-19T14:08:34.632Z,34.54
2018-07-19T14:09:45.255Z,34.53
2018-07-19T14:10:52.585Z,34.52
2018-07-19T14:11:59.021Z,34.52
2018-07-19T14:13:05.426Z,34.53
2018-07-19T14:14:12.397Z,34.53
2018-07-19T14:15:18.813Z,34.54
2018-07-19T14:16:25.213Z,34.53
2018-07-19T14:17:32.898Z,34.53
2018-07-19T14:18:41.466Z,34.53
2018-07-19T14:19:47.839Z,34.53
2018-07-19T14:20:54.068Z,34.53
2018-07-19T14:22:00.853Z,34.56
2018-07-19T14:23:07.375Z,34.58
2018-07-19T14:24:13.839Z,34.60
2018-07-19T14:25:21.141Z,34.61
2018-07-19T14:26:27.355Z,34.60
2018-07-19T14:27:36.002Z,34.59
2018-07-19T14:28:47.077Z,34.57
2018-07-19T14:29:53.969Z,34.57
2018-07-19T14:31:04.254Z,34.58
2018-07-19T14:32:15.315Z,34.57
2018-07-19T14:33:21.429Z,34.55
2018-07-19T14:34:28.741Z,34.53
2018-07-19T14:35:34.893Z,34.50
2018-07-19T14:36:47.019Z,34.48
2018-07-19T14:37:54.282Z,34.46
2018-07-19T14:39:01.310Z,34.44
2018-07-19T14:40:07.562Z,34.43
2018-07-19T14:41:14.010Z,34.44
2018-07-19T14:42:20.253Z,34.46
2018-07-19T14:43:27.589Z,34.48
2018-07-19T14:44:34.580Z,34.50
2018-07-19T14:45:40.902Z,34.49
2018-07-19T14:46:47.618Z,34.52
2018-07-19T14:47:55.994Z,34.51
2018-07-19T14:49:02.288Z,34.49
2018-07-19T14:50:08.911Z,34.48
2018-07-19T14:51:16.771Z,34.48
2018-07-19T14:52:24.917Z,34.48
2018-07-19T14:53:31.346Z,34.47
2018-07-19T14:54:37.662Z,34.44
2018-07-19T14:55:44.757Z,34.44
2018-07-19T14:56:58.145Z,34.44
2018-07-19T14:58:04.419Z,34.42
2018-07-19T14:59:11.613Z,34.40
2018-07-19T15:00:17.845Z,34.40
2018-07-19T15:01:24.515Z,34.40
2018-07-19T15:02:32.920Z,34.40
2018-07-19T15:03:39.567Z,34.40
2018-07-19T15:04:46.310Z,34.38
2018-07-19T15:05:56.561Z,34.36
2018-07-19T15:07:03.143Z,34.32
2018-07-19T15:08:10.906Z,34.32
2018-07-19T15:09:17.234Z,34.31
2018-07-19T15:10:23.707Z,34.30
2018-07-19T15:11:31.623Z,34.30
2018-07-19T15:12:41.124Z,34.30
2018-07-19T15:13:48.313Z,34.31
2018-07-19T15:14:56.539Z,34.30
2018-07-19T15:16:05.215Z,34.29
2018-07-19T15:17:11.438Z,34.28
2018-07-19T15:18:18.216Z,34.26
2018-07-19T15:19:24.461Z,34.24
2018-07-19T15:20:33.793Z,34.23
2018-07-19T15:21:42.100Z,34.23
2018-07-19T15:22:48.411Z,34.23
2018-07-19T15:23:54.732Z,34.22
2018-07-19T15:25:00.913Z,34.23
2018-07-19T15:26:13.173Z,34.22
2018-07-19T15:27:19.487Z,34.20
2018-07-19T15:28:25.827Z,34.19
2018-07-19T15:29:32.106Z,34.20
2018-07-19T15:30:40.067Z,34.19
2018-07-19T15:31:46.358Z,34.20
2018-07-19T15:32:52.489Z,34.20
2018-07-19T15:33:58.767Z,34.21
2018-07-19T15:35:05.079Z,34.19
2018-07-19T15:36:12.405Z,34.20
2018-07-19T15:37:19.250Z,34.19
2018-07-19T15:38:26.749Z,34.17
2018-07-19T15:39:33.120Z,34.13
2018-07-19T15:40:39.359Z,34.10
2018-07-19T15:41:45.445Z,34.08
2018-07-19T15:42:54.598Z,34.05
2018-07-19T15:44:01.447Z,34.04
2018-07-19T15:45:08.471Z,34.03
2018-07-19T15:46:14.817Z,34.03
2018-07-19T15:47:21.641Z,34.01
2018-07-19T15:48:29.659Z,34.01
2018-07-19T15:49:36.804Z,34.00
2018-07-19T15:50:43.016Z,33.98
2018-07-19T15:51:50.742Z,33.97
2018-07-19T15:53:00.016Z,33.96
2018-07-19T15:54:08.471Z,33.96
2018-07-19T15:55:15.358Z,33.95
2018-07-19T15:56:22.989Z,33.93
2018-07-19T15:57:29.303Z,33.93
2018-07-19T15:58:37.387Z,33.91
2018-07-19T15:59:43.629Z,33.92
2018-07-19T16:00:49.755Z,33.90
2018-07-19T16:01:56.288Z,33.90
2018-07-19T16:03:05.375Z,33.88
2018-07-19T16:04:13.366Z,33.87
2018-07-19T16:05:22.975Z,33.86
2018-07-19T16:06:32.670Z,33.84
2018-07-19T16:07:38.991Z,33.84
2018-07-19T16:08:45.425Z,33.83
2018-07-19T16:09:51.931Z,33.83
2018-07-19T16:11:00.595Z,33.83
2018-07-19T16:12:07.327Z,33.83
2018-07-19T16:13:13.617Z,33.83
2018-07-19T16:14:21.473Z,33.82
2018-07-19T16:15:28.682Z,33.79
2018-07-19T16:16:35.166Z,33.78
2018-07-19T16:17:43.127Z,33.76
2018-07-19T16:18:50.557Z,33.74
2018-07-19T16:19:56.912Z,33.73
2018-07-19T16:21:04.162Z,33.71
2018-07-19T16:22:12.326Z,33.71
2018-07-19T16:23:18.507Z,33.69
2018-07-19T16:24:26.174Z,33.68
2018-07-19T16:25:35.961Z,33.67
2018-07-19T16:26:43.614Z,33.67
2018-07-19T16:27:51.308Z,33.66
2018-07-19T16:28:59.269Z,33.65
2018-07-19T16:30:06.146Z,33.65
2018-07-19T16:31:12.528Z,33.64
2018-07-19T16:32:19.628Z,33.62
2018-07-19T16:33:26.112Z,33.62
2018-07-19T16:34:33.788Z,33.60
2018-07-19T16:35:40.820Z,33.57
2018-07-19T16:36:47.190Z,33.56
2018-07-19T16:37:53.756Z,33.52
2018-07-19T16:39:01.366Z,33.49
2018-07-19T16:40:08.391Z,33.47
2018-07-19T16:41:16.558Z,33.45
2018-07-19T16:42:24.066Z,33.44
2018-07-19T16:43:30.518Z,33.44
2018-07-19T16:44:38.283Z,33.42
2018-07-19T16:45:44.553Z,33.40
2018-07-19T16:46:53.756Z,33.39
2018-07-19T16:48:05.794Z,33.37
2018-07-19T16:49:12.628Z,33.34
2018-07-19T16:50:18.696Z,33.34
2018-07-19T16:51:26.805Z,33.33
2018-07-19T16:52:34.028Z,33.33
2018-07-19T16:53:44.624Z,33.32
2018-07-19T16:55:01.683Z,33.30
2018-07-19T16:56:08.053Z,33.27
2018-07-19T16:57:17.466Z,33.26
2018-07-19T16:58:33.159Z,33.24
2018-07-19T16:59:42.667Z,33.24
2018-07-19T17:00:48.735Z,33.22
2018-07-19T17:02:05.348Z,33.22
2018-07-19T17:03:11.592Z,33.21
2018-07-19T17:04:18.329Z,33.20
2018-07-19T17:05:24.492Z,33.22
2018-07-19T17:06:30.609Z,33.22
2018-07-19T17:07:36.678Z,33.22
2018-07-19T17:08:42.781Z,33.21
2018-07-19T17:09:49.066Z,33.19
2018-07-19T17:10:55.152Z,33.18
2018-07-19T17:12:01.378Z,33.17
2018-07-19T17:13:07.598Z,33.15
2018-07-19T17:14:14.417Z,33.13
2018-07-19T17:15:20.313Z,33.11
2018-07-19T17:16:26.712Z,33.10
2018-07-19T17:17:32.764Z,33.08
2018-07-19T17:18:40.438Z,33.07
2018-07-19T17:19:46.538Z,33.05
2018-07-19T17:20:52.527Z,33.05
2018-07-19T17:21:58.595Z,33.02
2018-07-19T17:23:04.665Z,33.00
2018-07-19T17:24:10.668Z,33.00
2018-07-19T17:25:17.382Z,32.98
2018-07-19T17:26:24.126Z,32.96
2018-07-19T17:27:33.468Z,32.94
2018-07-19T17:28:41.218Z,32.92
2018-07-19T17:29:50.984Z,32.90
2018-07-19T17:30:58.112Z,32.87
2018-07-19T17:32:07.085Z,32.84
2018-07-19T17:33:15.629Z,32.81
2018-07-19T17:34:23.573Z,32.80
2018-07-19T17:35:31.450Z,32.78
2018-07-19T17:36:38.320Z,32.75
2018-07-19T17:37:44.457Z,32.73
2018-07-19T17:38:50.924Z,32.72
2018-07-19T17:39:59.853Z,32.70
2018-07-19T17:41:06.727Z,32.69
2018-07-19T17:42:14.797Z,32.68
2018-07-19T17:43:22.452Z,32.64
2018-07-19T17:44:28.553Z,32.63
2018-07-19T17:45:34.537Z,32.60
2018-07-19T17:46:40.495Z,32.60
2018-07-19T17:47:46.453Z,32.57
2018-07-19T17:48:54.421Z,32.56
2018-07-19T17:50:00.735Z,32.53
2018-07-19T17:51:07.015Z,32.51
2018-07-19T17:52:13.217Z,32.49
2018-07-19T17:53:19.493Z,32.47
2018-07-19T17:54:26.811Z,32.44
2018-07-19T17:55:34.630Z,32.43
2018-07-19T17:56:42.582Z,32.39
2018-07-19T17:57:48.829Z,32.37
2018-07-19T17:58:55.467Z,32.35
2018-07-19T18:00:01.556Z,32.33
2018-07-19T18:01:08.659Z,32.31
2018-07-19T18:02:16.169Z,32.29
2018-07-19T18:03:22.409Z,32.27
2018-07-19T18:04:30.038Z,32.25
2018-07-19T18:05:37.341Z,32.22
2018-07-19T18:06:43.477Z,32.21
2018-07-19T18:07:50.573Z,32.18
2018-07-19T18:08:56.680Z,32.16
2018-07-19T18:10:04.090Z,32.14
2018-07-19T18:11:11.703Z,32.11
2018-07-19T18:12:18.763Z,32.08
2018-07-19T18:13:27.815Z,32.06
2018-07-19T18:14:34.101Z,32.04
2018-07-19T18:15:41.803Z,32.01
2018-07-19T18:16:49.449Z,31.98
2018-07-19T18:17:56.315Z,31.95
2018-07-19T18:19:02.979Z,31.94
2018-07-19T18:20:09.170Z,31.90
2018-07-19T18:21:16.001Z,31.88
2018-07-19T18:22:22.762Z,31.85
2018-07-19T18:23:30.421Z,31.82
2018-07-19T18:24:36.909Z,31.78
2018-07-19T18:25:43.317Z,31.75
2018-07-19T18:26:50.191Z,31.72
2018-07-19T18:27:57.941Z,31.70
2018-07-19T18:29:04.251Z,31.69
2018-07-19T18:30:11.517Z,31.64
2018-07-19T18:31:17.750Z,31.63
2018-07-19T18:32:23.833Z,31.60
2018-07-19T18:33:30.103Z,31.58
2018-07-19T18:34:37.769Z,31.56
2018-07-19T18:35:46.075Z,31.52
2018-07-19T18:36:52.718Z,31.49
2018-07-19T18:37:59.367Z,31.46
2018-07-19T18:39:08.569Z,31.43
2018-07-19T18:40:16.097Z,31.41
2018-07-19T18:41:23.229Z,31.37
2018-07-19T18:42:30.345Z,31.36
2018-07-19T18:43:36.882Z,31.33
2018-07-19T18:44:43.255Z,31.30
2018-07-19T18:45:49.443Z,31.29
2018-07-19T18:46:57.190Z,31.26
2018-07-19T18:48:04.273Z,31.23
2018-07-19T18:49:11.437Z,31.20
2018-07-19T18:50:18.955Z,31.17
2018-07-19T18:51:26.087Z,31.17
2018-07-19T18:52:34.374Z,31.13
2018-07-19T18:53:41.127Z,31.10
2018-07-19T18:54:50.795Z,31.09
2018-07-19T18:55:58.383Z,31.06
2018-07-19T18:57:05.557Z,31.03
2018-07-19T18:58:13.271Z,31.00
2018-07-19T18:59:19.523Z,30.97
2018-07-19T19:00:26.177Z,30.94
2018-07-19T19:01:33.495Z,30.92
2018-07-19T19:02:41.409Z,30.90
2018-07-19T19:03:48.555Z,30.86
2018-07-19T19:04:56.630Z,30.84
2018-07-19T19:06:03.555Z,30.81
2018-07-19T19:07:09.761Z,30.79
2018-07-19T19:08:18.330Z,30.78
2018-07-19T19:09:25.653Z,30.75
2018-07-19T19:10:34.981Z,30.73
2018-07-19T19:11:42.359Z,30.71
2018-07-19T19:12:48.772Z,30.69
2018-07-19T19:13:56.499Z,30.66
2018-07-19T19:15:04.425Z,30.62
2018-07-19T19:16:11.938Z,30.61
2018-07-19T19:17:18.673Z,30.58
2018-07-19T19:18:26.823Z,30.55
2018-07-19T19:19:37.005Z,30.53
2018-07-19T19:20:45.286Z,30.50
2018-07-19T19:21:51.967Z,30.47
2018-07-19T19:22:59.437Z,30.45